This is the latest recevied weather packets stored in our database for station/object N5CSU. If no packets are shown the sender has not sent any weather packets the latest 10 day(s).
| Time | Temp. | Humidity | Pressure | Rain* | Wind** | Luminosity | Snow |
|---|---|---|---|---|---|---|---|
| 1777483454 | 16.67° C | 85% | 1015.9 hPa | 0 mm | - | 5 W/m² | - |
| 1777483149 | 16.67° C | 85% | 1014.8 hPa | 0 mm | - | 17 W/m² | - |
| 1777482846 | 16.67° C | 85% | 1014.8 hPa | 0 mm | - | 18 W/m² | - |
| 1777482542 | 16.11° C | 86% | 1015.1 hPa | 0 mm | - | 15 W/m² | - |
| 1777482240 | 16.11° C | 85% | 1015.6 hPa | 0 mm | - | 13 W/m² | - |
| 1777481936 | 16.11° C | 86% | 1015.8 hPa | 0 mm | - | 8 W/m² | - |
| 1777481634 | 16.11° C | 86% | 1016 hPa | 0 mm | - | 13 W/m² | - |
| 1777481331 | 16.11° C | 87% | 1016.5 hPa | 0 mm | - | 5 W/m² | - |
| 1777481028 | 16.11° C | 86% | 1016.6 hPa | 0 mm | - | 4 W/m² | - |
| 1777480724 | 16.11° C | 85% | 1016.8 hPa | 0 mm | - | 3 W/m² | - |
| 1777480421 | 16.11° C | 86% | 1016.3 hPa | 0 mm | - | 11 W/m² | - |
| 1777480117 | 15.56° C | 86% | 1016 hPa | 0 mm | - | 20 W/m² | - |
| 1777479813 | 15.56° C | 86% | 1016.3 hPa | 0 mm | - | 8 W/m² | - |
| 1777479511 | 15.56° C | 87% | 1016.7 hPa | 0 mm | - | 4 W/m² | - |
| 1777479207 | 16.11° C | 86% | 1016.6 hPa | 0 mm | - | 4 W/m² | - |
| 1777478904 | 16.11° C | 86% | 1016.4 hPa | 0 mm | - | 6 W/m² | - |
| 1777478601 | 16.11° C | 85% | 1015.8 hPa | 0 mm | - | 6 W/m² | - |
| 1777478298 | 16.11° C | 84% | 1015.7 hPa | 0 mm | - | 7 W/m² | - |
| 1777477995 | 16.11° C | 85% | 1016 hPa | 0 mm | - | 13 W/m² | - |
| 1777477690 | 16.11° C | 84% | 1016 hPa | 0 mm | - | 9 W/m² | - |
| 1777477386 | 16.11° C | 83% | 1015.9 hPa | 0 mm | - | 5 W/m² | - |
| 1777477077 | 16.11° C | 83% | 1015.7 hPa | 0 mm | - | 11 W/m² | - |
| 1777476775 | 16.11° C | 84% | 1016.5 hPa | 0 mm | - | 4 W/m² | - |
| 1777476471 | 16.11° C | 84% | 1016.5 hPa | 0 mm | - | 4 W/m² | - |
| 1777476168 | 16.11° C | 83% | 1016.4 hPa | 0 mm | - | 4 W/m² | - |
* Rain latest hour (hover to see other rain measurements)
** Current wind speed in m/s (hover to see current wind gust speed)